Tremonton, Utah
Current Conditions -  °F | °C
As of 3:35 PM on Wednesday 22 Oct 2014 (Local Time) from KBMC Reporting Station
Clear Clear  
Wind Chill: 60°   Ceiling: Unl
Heat Index: 60°   Visibility: 10mi
Dew Point: 22°   Wind: 0mph
Humidity: 23%   Direction: NA
Pressure: 30.18"   Gusts: NA
Location:  41.71°N, 112.17°W
Report Text: KBMC 222135Z AUTO 00000KT 10SM CLR 16/M05 A3018 RMK AO1 T01571053
Loading
Personal Weather Stations






























Interactive Weather Map New forecast layout! Learn more

10-Day Weather Forecast

Advertisements
Track Severe Weather on mobile